Latest Observation

42 Stations

15 Minute Data | America/Los_Angeles
as of 4/18/24 12:28 PM PDT
Station Date Time Temp (°F) RH (%) Dew Pt (°F) Wind Dir (°) Wind Spd (mph) Wind Gust (mph) Solar Rad (W/m2) Latest Rain (In) Daily Rain (In) Daily Max Temp (°F) Daily Min Temp (°F) Daily Max Wind (mph) Daily ETo (in) Daily Leaf Wet (Hrs)
Colony 1 4/18/24 1215 75.6   5.5 55   4 58.2   3.2 SW | 234 2.2   0.9 5.3   1.0 907   351 0.00 0.00 76.0   5.0 49.2   1.4 5.3   0.9 0.062   0.023 -
Colony 2 4/18/24 1215 74.2   3.8 55   0 57.0   3.3 WSW | 255 2.8   1.7 5.7   1.7 885   392 0.00 0.00 74.8   3.9 48.8   0.2 6.2   0.3 0.062   0.023 -
Gill Ranch 4/18/24 1215 72.7   4.8 60   3 57.8   3.2 W | 272 1.7   0.3 4.2   0.2 918   267 0.00 0.00 73.1   4.9 46.5   2.0 6.3   0.8 0.064   0.024 -
Borden40 4/18/24 1215 73.8   5.8 55   7 56.4   2.2 N | 353 3.1   0.8 7.1   1.6 922   352 0.00 0.00 74.1   5.7 48.0   0.7 7.7   1.2 0.068   0.026 -
5 Wells 4/18/24 1215 73.8   5.0 52   5 55.0   2.1 SW | 225 1.9   0.7 5.7   0.4 525   180 0.00 0.00 74.6   5.5 48.4   1.8 7.7   1.2 0.038   0.014 -
Simmerhorn 4/18/24 1215 75.0   5.9 66   4 63.0   3.9 - - - - - - 75.6   5.4 48.2   0.6 - - -
Alta Mesa Rd 4/18/24 1215 73.6   5.4 59   4 58.2   3.2 NW | 305 2.2   0.3 6.5   1.4 916   224 0.00 0.00 74.0   5.1 48.3   0.8 6.5   0.1 0.047   0.009 -
Alabama Vineyard 4/18/24 1215 73.2   4.9 61   8 58.8   1.2 WSW | 243 2.8   0.8 7.3   2.8 845   297 0.00 0.00 73.5   4.8 47.9   1.9 7.5   1.3 0.056   0.022 -
Borden Hills 4/18/24 1215 76.0   6.0 52   11 57.0   0.4 WSW | 251 1.6   0.6 4.3   1.4 932   309 0.00 0.00 76.8   5.9 51.3   0.0 6.5   0.7 0.064   0.023 -
Sierra Loma-L27 4/18/24 1215 78.0   7.1 53   7 59.8   3.1 N | 0 0.0   0.0 0.0   0.1 - 0.00 0.00 78.0   6.3 51.0   1.4 0.3   5.6 - -
Lone Oak-L28 4/18/24 1215 75.3   4.6 56   2 58.6   3.3 NW | 321 3.2   0.8 7.0   0.0 - 0.00 0.00 76.4   4.3 47.5   0.3 7.0   0.6 - -
Kost Rd 4/18/24 1215 75.1   5.5 60   10 60.4   1.0 WNW | 288 1.6   0.2 3.8   0.0 788   151 0.00 0.00 75.8   5.6 46.9   0.3 5.6   1.2 0.050   0.018 -
Lockeford 4/18/24 1215 73.6   5.8 60   9 58.8   1.8 W | 269 1.9   1.5 5.8   0.0 880   317 0.00 0.00 74.1   5.8 46.8   0.1 6.4   0.0 0.059   0.021 7.0   0.8
Thornton 4/18/24 1215 74.6   6.7 56   8 57.7   2.5 W | 275 2.6   0.8 6.1   0.3 970   176 0.00 0.00 75.3   6.8 47.6   1.6 7.4   0.7 0.067   0.030 6.4   2.7
Lodi (LangeTwins) 4/18/24 1215 74.8   6.2 59   8 59.5   2.3 NNW | 328 1.8   1.0 5.4   1.3 878   267 0.00 0.00 75.5   6.2 48.4   1.3 6.1   0.7 0.060   0.022 4.2   0.1
Gilbeau Ranch 4/18/24 1215 73.9   4.2 50   7 54.3   0.6 W | 269 2.7   0.6 5.9   0.0 825   173 0.00 0.00 74.5   4.3 49.7   1.0 6.6   0.7 0.045   0.014 -
Galt West 4/18/24 1215 73.2   4.7 58   6 57.6   1.6 N | 359 2.6   0.2 5.7   0.6 834   333 0.00 0.00 74.3   5.1 47.6   2.9 6.9   0.5 0.055   0.022 -
Valley Oak 4/18/24 1215 73.2   4.3 - - WNW | 288 2.9   0.6 6.0   0.5 783   176 0.00 0.00 74.2   4.5 48.9   1.3 7.4   0.1 0.053   0.020 -
Guard Rd (Lodi WSW) 4/18/24 0830 59.3   2.0 87   6 55.4   0.1 N | 356 3.4   1.3 5.6   1.2 273   68 0.00 0.00 60.2   2.5 47.5   0.3 6.0   1.6 0.001   0.000 3.2   3.2
Linden 4/18/24 1215 76.6   5.0 50   5 56.8   1.8 NW | 323 1.1   3.4 4.7   4.3 - - 0.00 77.5   4.3 46.7   1.0 7.1   1.9 - 7.1   0.8
DeVries Road-North 4/18/24 1215 73.9   5.5 61   5 59.7   3.2 NW | 315 2.3   0.5 7.9   1.4 857   229 0.00 0.00 74.6   5.3 48.8   0.5 7.9   0.7 0.057   0.020 -
Acampo 4/18/24 1215 75.3   6.5 48   10 54.5   0.9 WNW | 287 3.1   0.2 8.1   2.0 857   255 - 0.00 75.5   6.5 49.4   1.0 8.1   0.7 0.057   0.019 11.2   0.0
Acampo (Woodbridge) 4/18/24 1215 74.7   6.4 53   12 56.5   0.3 NW | 326 2.1   2.0 5.3   1.8 847   266 0.00 0.00 75.2   6.5 48.0   2.2 6.6   0.6 0.056   0.019 -
Lodi West 4/18/24 1200 73.4   4.8 53   5 55.0   1.9 N | 1 2.0   2.6 6.4   2.6 845   230 0.00 0.00 74.0   4.8 49.5   1.2 7.0   2.0 0.036   0.009 0.0   0.0
Teresi-Alpine Rd (East Lodi) 4/18/24 1215 76.6   7.1 49   11 56.0   1.1 W | 262 2.1   2.2 6.0   2.4 - 0.00 0.00 77.3   7.4 49.0   1.0 6.0   2.4 - -
Victor - N (Katusha) 4/18/24 1215 74.6   6.0 50   9 54.7   0.9 SSW | 212 2.1   1.3 6.1   2.3 - 0.00 0.00 75.5   5.9 48.0   0.7 13.1   4.7 - -
Live Oak 4/18/24 1215 76.6   5.3 50   4 56.4   3.0 WSW | 258 2.6   1.6 6.1   2.0 876   260 0.00 0.00 77.8   5.9 48.7   1.2 6.7   1.4 0.058   0.009 -
Sheldon 4/18/24 1215 75.0   3.4 52   3 56.1   1.4 WNW | 287 2.6   0.1 5.8   0.0 791   173 0.00 0.00 75.5   3.6 47.8   0.3 6.4   1.3 0.054   0.015 6.1   0.1
Sloughhouse 4/18/24 1215 75.1   3.3 53   1 56.8   3.8 WNW | 282 3.1   0.5 8.1   0.7 824   91 0.00 0.00 75.9   3.6 47.5   0.6 8.1   0.3 0.058   0.012 -
Utter - Wilson 4/18/24 1215 74.9   2.2 41   12 49.3   5.1 NNW | 327 3.8   2.1 7.7   3.3 906   235 0.00 0.00 77.9   3.2 51.6   1.1 13.0   0.3 0.067   0.017 -
Clarksburg 4/18/24 1215 75.0   4.2 39   13 48.2   4.0 NNW | 342 2.2   2.1 6.3   2.5 901   354 0.00 0.00 75.8   4.6 50.7   0.5 11.0   1.2 0.063   0.022 -
Clarksburg-3A2 4/18/24 1215 72.4   3.3 46   13 50.4   3.6 N | 350 3.7   2.1 6.8   2.5 869   414 0.00 0.00 72.9   3.4 47.6   0.2 12.3   1.8 0.060   0.024 -
Gorter - Wilson 4/18/24 1215 74.6   4.2 50   9 54.9   0.4 NW | 321 4.0   2.0 7.4   2.3 834   400 0.00 0.00 75.4   4.0 47.4   0.2 10.7   1.0 0.031   0.005 -
Hood 4/18/24 1215 73.5   3.6 48   5 52.5   0.7 NW | 316 2.9   1.3 6.5   1.4 824   386 0.00 0.00 73.9   3.6 47.1   0.6 8.6   0.7 0.057   0.021 -
Courtland-C3 4/18/24 1215 73.8   4.7 49   10 53.3   0.7 NW | 311 3.7   0.6 7.7   0.7 - 0.00 0.00 74.5   4.7 48.5   0.2 11.5   1.4 - -
Pacific Fruit 4/18/24 1215 75.6   4.4 43   16 51.5   4.6 NNW | 344 2.6   0.0 6.4   0.2 904   335 0.00 0.00 76.2   3.7 51.8   2.1 11.3   1.7 0.064   0.028 -
Ryer Island South 4/18/24 1215 74.7   3.8 36   21 46.0   8.8 NNW | 329 4.9   1.1 8.4   1.6 902   198 0.00 0.00 75.6   3.4 48.5   0.1 11.9   2.1 0.069   0.022 6.7   1.0
Farmington (Mobley100) 4/18/24 1215 74.5   3.2 60   1 59.5   3.6 WSW | 252 0.6   0.2 3.1   0.6 - - - 75.0   3.4 49.7   1.1 3.2   1.2 - -
Collegeville 4/18/24 1215 74.2   2.2 55   1 57.0   1.5 NNW | 332 1.9   0.2 5.0   0.2 884   187 0.00 0.00 74.7   2.3 48.6   0.7 5.3   1.2 0.060   0.006 -
Oakdale North (28 Mile Rd) 4/18/24 1215 74.7   4.1 59   3 59.4   2.6 S | 185 0.6   0.1 3.2   0.6 - - - 74.8   3.6 50.1   1.2 4.1   0.7 - -
Escalon 4/18/24 1215 74.8   1.0 53   5 56.6   1.7 NW | 315 2.1   0.3 5.8   0.1 - 0.00 0.00 76.0   1.1 49.5   1.6 5.8   0.2 - 8.1   0.6
Claussen 4/18/24 1215 75.8   2.9 47   9 54.2   1.9 NNW | 344 3.3   0.1 6.9   0.7 919   224 0.00 0.00 76.5   3.0 52.0   1.7 8.9   0.6 0.065   0.008 -
Max     78.0 66 63.0 - 4.9 8.4 970 0.00 0.00 78.0 52.0 13.1 0.069 11.2
Avg     74.6 53 56.1 - 2.4 5.9 860 0.00 - - - - - -
Min     72.4 36 46.0 - 0.0 0.0 525 0.00 0.00 72.9 46.5 0.3 0.031 0.0